PPR Request

Prior permission is required for take-offs and landings. Make a prior permission request here on day of flight.

Traffic Circuit Slot

Make your PPR request first, then the TC slot reservation. Price 5 € / 15 minute slot.

Aerodrome Info

Updated 15 DEC 2019 12:23 LT

  • Bird activity.
  • Water patches on aprons and taxiways, braking action locally estimated poor. Runway damp.
  • Recommended runway: RWY18
  • NOTE: Cranes 0.5 - 1.5 NM W FM THR RWY36

Contact duty officer at +358 20 7545 129 for more information.

Remember to close your flight plan: ACC tel. +358 3 286 5172.

Weather


Helsinki Malmi lentokenttä
AWS ILHF 151230Z AUTO 13007KT 9999 -RA OVC006 02/01 Q0995=



Helsinki-Malmin lentoasema

Welcome to Helsinki-Malmi Airport

Helsinki-Malmi is the busiest general aviation airport in Finland, operated by Malmi Airfield Association.

Behind the association are organizations, companies and persons operating at the Malmi Airport.

The Association’s work is funded by membership fees and season card fees. The Association needs both full members and supporting members to finance its activity.

Be involved in continuing Malmi’s aviation activities and join as a member!